createdAt,value
2018-01-27T00:00:00.217Z,47.1
2018-01-27T00:01:01.258Z,47.1
2018-01-27T00:02:02.580Z,46.8
2018-01-27T00:03:03.973Z,47
2018-01-27T00:04:05.016Z,47
2018-01-27T00:05:06.356Z,47.1
2018-01-27T00:06:08.011Z,47
2018-01-27T00:07:09.907Z,47
2018-01-27T00:08:11.259Z,47.1
2018-01-27T00:09:13.155Z,47.1
2018-01-27T00:10:15.051Z,47.2
2018-01-27T00:11:16.390Z,47
2018-01-27T00:12:18.286Z,47
2018-01-27T00:13:19.607Z,46.9
2018-01-27T00:14:20.924Z,47
2018-01-27T00:15:22.820Z,47.2
2018-01-27T00:16:24.716Z,47
2018-01-27T00:17:26.347Z,47
2018-01-27T00:18:28.243Z,47
2018-01-27T00:19:29.583Z,47.2
2018-01-27T00:20:30.903Z,47.1
2018-01-27T00:21:32.500Z,47
2018-01-27T00:22:33.822Z,47
2018-01-27T00:23:35.161Z,47.2
2018-01-27T00:24:36.478Z,47
2018-01-27T00:25:38.374Z,47
2018-01-27T00:26:39.992Z,46.8
2018-01-27T00:27:41.040Z,46.9
2018-01-27T00:28:42.658Z,47
2018-01-27T00:29:44.274Z,47
2018-01-27T00:30:45.592Z,47
2018-01-27T00:31:47.491Z,47
2018-01-27T00:32:49.124Z,47
2018-01-27T00:33:50.741Z,46.9
2018-01-27T00:34:52.643Z,47
2018-01-27T00:35:54.245Z,47
2018-01-27T00:36:55.867Z,46.9
2018-01-27T00:37:57.188Z,46.8
2018-01-27T00:38:58.812Z,46.8
2018-01-27T00:40:00.155Z,46.9
2018-01-27T00:41:01.494Z,46.8
2018-01-27T00:42:03.091Z,46.8
2018-01-27T00:43:04.433Z,47
2018-01-27T00:44:06.051Z,46.9
2018-01-27T00:45:07.950Z,47
2018-01-27T00:46:09.841Z,47
2018-01-27T00:47:11.473Z,46.8
2018-01-27T00:48:12.801Z,46.8
2018-01-27T00:49:14.121Z,46.8
2018-01-27T00:50:15.744Z,46.8
2018-01-27T00:51:17.359Z,46.7
2018-01-27T00:52:18.963Z,46.9
2018-01-27T00:53:20.325Z,46.9
2018-01-27T00:54:21.924Z,46.7
2018-01-27T00:55:23.821Z,46.8
2018-01-27T00:56:25.144Z,46.6
2018-01-27T00:57:26.741Z,46.7
2018-01-27T00:58:28.361Z,46.8
2018-01-27T00:59:29.704Z,46.8
2018-01-27T01:00:31.326Z,46.8
2018-01-27T01:01:32.364Z,46.8
2018-01-27T01:02:33.987Z,46.8
2018-01-27T01:03:35.880Z,46.6
2018-01-27T01:04:37.498Z,46.6
2018-01-27T01:05:39.397Z,46.8
2018-01-27T01:06:41.295Z,46.6
2018-01-27T01:07:43.192Z,46.6
2018-01-27T01:08:45.091Z,46.7
2018-01-27T01:09:46.410Z,46.6
2018-01-27T01:10:47.752Z,46.7
2018-01-27T01:11:49.650Z,46.8
2018-01-27T01:12:51.270Z,46.6
2018-01-27T01:13:52.892Z,46.6
2018-01-27T01:14:54.786Z,46.6
2018-01-27T01:15:55.848Z,46.7
2018-01-27T01:16:57.745Z,46.6
2018-01-27T01:17:59.086Z,46.7
2018-01-27T01:19:00.983Z,46.6
2018-01-27T01:20:02.045Z,46.7
2018-01-27T01:21:03.954Z,46.6
2018-01-27T01:22:04.995Z,46.8
2018-01-27T01:23:06.314Z,46.6
2018-01-27T01:24:07.415Z,46.7
2018-01-27T01:25:09.023Z,46.6
2018-01-27T01:26:10.919Z,46.9
2018-01-27T01:27:12.259Z,46.7
2018-01-27T01:28:13.581Z,46.6
2018-01-27T01:29:15.202Z,46.8
2018-01-27T01:30:16.544Z,46.6
2018-01-27T01:31:17.586Z,46.7
2018-01-27T01:32:19.204Z,46.9
2018-01-27T01:33:21.101Z,46.9
2018-01-27T01:34:23.000Z,46.8
2018-01-27T01:35:24.617Z,46.8
2018-01-27T01:36:25.681Z,46.8
2018-01-27T01:37:27.579Z,46.7
2018-01-27T01:38:29.177Z,46.8
2018-01-27T01:39:30.795Z,46.7
2018-01-27T01:40:32.692Z,46.7
2018-01-27T01:41:34.011Z,46.8
2018-01-27T01:42:35.918Z,46.5
2018-01-27T01:43:37.809Z,46.7
2018-01-27T01:44:39.148Z,46.7
2018-01-27T01:45:40.491Z,46.8
2018-01-27T01:46:42.387Z,46.7
2018-01-27T01:47:44.016Z,46.7
2018-01-27T01:48:45.347Z,46.6
2018-01-27T01:49:46.691Z,46.7
2018-01-27T01:50:48.031Z,46.8
2018-01-27T01:51:49.648Z,46.6
2018-01-27T01:52:51.269Z,46.6
2018-01-27T01:53:52.609Z,46.7
2018-01-27T01:54:54.502Z,46.7
2018-01-27T01:55:55.857Z,46.8
2018-01-27T01:56:57.200Z,46.7
2018-01-27T01:57:58.818Z,46.5
2018-01-27T01:59:00.754Z,46.6
2018-01-27T02:00:02.070Z,46.8
2018-01-27T02:01:03.687Z,46.5
2018-01-27T02:02:04.748Z,46.5
2018-01-27T02:03:06.363Z,46.8
2018-01-27T02:04:07.706Z,46.6
2018-01-27T02:05:09.050Z,46.8
2018-01-27T02:06:10.394Z,46.6
2018-01-27T02:07:12.295Z,46.6
2018-01-27T02:08:13.358Z,46.6
2018-01-27T02:09:14.986Z,46.6
2018-01-27T02:10:16.305Z,46.4
2018-01-27T02:11:17.646Z,46.5
2018-01-27T02:12:19.263Z,46.5
2018-01-27T02:13:20.882Z,46.5
2018-01-27T02:14:22.480Z,46.5
2018-01-27T02:15:24.103Z,46.4
2018-01-27T02:16:25.721Z,46.4
2018-01-27T02:17:27.336Z,46.5
2018-01-27T02:18:29.232Z,46.4
2018-01-27T02:19:30.851Z,46.5
2018-01-27T02:20:32.470Z,46.5
2018-01-27T02:21:34.092Z,46.5
2018-01-27T02:22:36.022Z,46.4
2018-01-27T02:23:37.341Z,46.5
2018-01-27T02:24:38.658Z,46.6
2018-01-27T02:25:39.975Z,46.6
2018-01-27T02:26:41.314Z,46.5
2018-01-27T02:27:43.210Z,46.5
2018-01-27T02:28:44.253Z,46.5
2018-01-27T02:29:45.871Z,46.5
2018-01-27T02:30:47.490Z,46.4
2018-01-27T02:31:49.108Z,46.8
2018-01-27T02:32:51.026Z,46.4
2018-01-27T02:33:52.920Z,46.5
2018-01-27T02:34:53.964Z,46.6
2018-01-27T02:35:55.861Z,46.8
2018-01-27T02:36:57.757Z,46.4
2018-01-27T02:37:59.654Z,46.4
2018-01-27T02:39:01.252Z,46.8
2018-01-27T02:40:02.570Z,46.5
2018-01-27T02:41:03.611Z,46.7
2018-01-27T02:42:04.928Z,46.6
2018-01-27T02:43:06.266Z,46.7
2018-01-27T02:44:07.865Z,46.5
2018-01-27T02:45:09.765Z,46.6
2018-01-27T02:46:11.657Z,46.6
2018-01-27T02:47:12.978Z,46.4
2018-01-27T02:48:14.309Z,46.6
2018-01-27T02:49:16.207Z,46.5
2018-01-27T02:50:17.805Z,46.4
2018-01-27T02:51:19.424Z,46.6
2018-01-27T02:52:20.764Z,46.5
2018-01-27T02:53:22.659Z,46.5
2018-01-27T02:54:24.278Z,46.3
2018-01-27T02:55:25.601Z,46.5
2018-01-27T02:56:27.496Z,46.5
2018-01-27T02:57:28.560Z,46.4
2018-01-27T02:58:29.877Z,46.6
2018-01-27T02:59:31.775Z,46.3
2018-01-27T03:00:33.117Z,46.3
2018-01-27T03:01:34.754Z,46.4
2018-01-27T03:02:36.650Z,46.4
2018-01-27T03:03:37.990Z,46.5
2018-01-27T03:04:39.309Z,46.4
2018-01-27T03:05:40.940Z,46.5
2018-01-27T03:06:42.561Z,46.4
2018-01-27T03:07:44.462Z,46.4
2018-01-27T03:08:46.085Z,46.4
2018-01-27T03:09:47.707Z,46.5
2018-01-27T03:10:49.610Z,46.4
2018-01-27T03:11:51.228Z,46.4
2018-01-27T03:12:52.547Z,46.4
2018-01-27T03:13:53.889Z,46.4
2018-01-27T03:14:54.929Z,46.4
2018-01-27T03:15:56.826Z,46.4
2018-01-27T03:16:58.424Z,46.4
2018-01-27T03:18:00.321Z,46.4
2018-01-27T03:19:01.948Z,46.5
2018-01-27T03:20:03.567Z,46.4
2018-01-27T03:21:05.469Z,46.4
2018-01-27T03:22:06.513Z,46.5
2018-01-27T03:23:08.150Z,46.4
2018-01-27T03:24:09.215Z,46.4
2018-01-27T03:25:10.813Z,46.4
2018-01-27T03:26:12.183Z,46.5
2018-01-27T03:27:14.081Z,46.5
2018-01-27T03:28:15.698Z,46.4
2018-01-27T03:29:17.594Z,46.5
2018-01-27T03:30:19.297Z,46.4
2018-01-27T03:31:20.858Z,46.4
2018-01-27T03:32:22.752Z,46.4
2018-01-27T03:33:24.647Z,46.4
2018-01-27T03:34:26.267Z,46.2
2018-01-27T03:35:28.164Z,46.2
2018-01-27T03:36:29.782Z,46.4
2018-01-27T03:37:31.130Z,46.5
2018-01-27T03:38:32.743Z,46.4
2018-01-27T03:39:34.361Z,46.4
2018-01-27T03:40:35.991Z,46.2
2018-01-27T03:41:37.328Z,46.5
2018-01-27T03:42:38.643Z,46.3
2018-01-27T03:43:40.266Z,46.5
2018-01-27T03:44:41.879Z,46.4
2018-01-27T03:45:43.236Z,46.6
2018-01-27T03:46:44.574Z,46.4
2018-01-27T03:47:45.617Z,46.5
2018-01-27T03:48:47.256Z,46.3
2018-01-27T03:49:48.596Z,46.5
2018-01-27T03:50:50.193Z,46.4
2018-01-27T03:51:52.118Z,46.5
2018-01-27T03:52:53.739Z,46.3
2018-01-27T03:53:55.365Z,46.3
2018-01-27T03:54:57.263Z,46.4
2018-01-27T03:55:58.306Z,46.6
2018-01-27T03:56:59.651Z,46.4
2018-01-27T03:58:01.301Z,46.4
2018-01-27T03:59:02.917Z,46.3
2018-01-27T04:00:04.537Z,46.5
2018-01-27T04:01:05.878Z,46.3
2018-01-27T04:02:06.942Z,46.3
2018-01-27T04:03:08.835Z,46.4
2018-01-27T04:04:10.194Z,46.5
2018-01-27T04:05:11.532Z,46.2
2018-01-27T04:06:12.873Z,46.3
2018-01-27T04:07:14.490Z,46.4
2018-01-27T04:08:15.834Z,46.4
2018-01-27T04:09:16.875Z,46.4
2018-01-27T04:10:18.771Z,46.3
2018-01-27T04:11:20.113Z,46.1
2018-01-27T04:12:21.462Z,46.3
2018-01-27T04:13:23.359Z,46.3
2018-01-27T04:14:24.977Z,46.3
2018-01-27T04:15:26.320Z,46.1
2018-01-27T04:16:27.657Z,46.3
2018-01-27T04:17:29.279Z,46.2
2018-01-27T04:18:30.897Z,46.3
2018-01-27T04:19:32.517Z,46.1
2018-01-27T04:20:34.414Z,46.3
2018-01-27T04:21:36.036Z,46.1
2018-01-27T04:22:37.925Z,46.3
2018-01-27T04:23:38.970Z,46.2
2018-01-27T04:24:40.292Z,46.4
2018-01-27T04:25:41.332Z,46.1
2018-01-27T04:26:42.660Z,46.1
2018-01-27T04:27:43.700Z,46.2
2018-01-27T04:28:45.321Z,46.2
2018-01-27T04:29:47.216Z,46.2
2018-01-27T04:30:49.154Z,46.2
2018-01-27T04:31:50.789Z,46.2
2018-01-27T04:32:51.833Z,46.2
2018-01-27T04:33:53.452Z,46.3
2018-01-27T04:34:54.773Z,46.2
2018-01-27T04:35:55.813Z,46.1
2018-01-27T04:36:57.130Z,46.2
2018-01-27T04:37:58.761Z,46.2
2018-01-27T04:39:00.380Z,46.2
2018-01-27T04:40:02.277Z,46.2
2018-01-27T04:41:03.934Z,46.1
2018-01-27T04:42:04.990Z,46.3
2018-01-27T04:43:06.333Z,46.3
2018-01-27T04:44:07.097Z,46
2018-01-27T04:45:08.436Z,46.2
2018-01-27T04:46:09.495Z,46.3
2018-01-27T04:47:10.806Z,46.3
2018-01-27T04:48:12.426Z,46.2
2018-01-27T04:49:13.754Z,46.3
2018-01-27T04:50:15.371Z,46.3
2018-01-27T04:51:16.690Z,46.3
2018-01-27T04:52:18.289Z,46.3
2018-01-27T04:53:20.186Z,46.4
2018-01-27T04:54:21.784Z,46.3
2018-01-27T04:55:23.405Z,46.2
2018-01-27T04:56:24.455Z,46.1
2018-01-27T04:57:25.796Z,46.4
2018-01-27T04:58:27.114Z,46
2018-01-27T04:59:28.731Z,46.1
2018-01-27T05:00:29.508Z,46.3
2018-01-27T05:01:31.430Z,46
2018-01-27T05:02:32.745Z,46
2018-01-27T05:03:34.383Z,46.3
2018-01-27T05:04:35.979Z,46.2
2018-01-27T05:05:37.580Z,46.3
2018-01-27T05:06:38.897Z,46.4
2018-01-27T05:07:40.797Z,46.3
2018-01-27T05:08:42.411Z,46.3
2018-01-27T05:09:44.034Z,46.4
2018-01-27T05:10:45.929Z,46
2018-01-27T05:11:47.249Z,46.3
2018-01-27T05:12:49.145Z,46.1
2018-01-27T05:13:50.801Z,46.1
2018-01-27T05:14:51.864Z,46.1
2018-01-27T05:15:53.459Z,46
2018-01-27T05:16:54.781Z,46.3
2018-01-27T05:17:56.401Z,46
2018-01-27T05:18:58.021Z,46.3
2018-01-27T05:19:59.618Z,46.3
2018-01-27T05:21:01.219Z,46
2018-01-27T05:22:02.815Z,46.2
2018-01-27T05:23:04.431Z,46
2018-01-27T05:24:05.746Z,46
2018-01-27T05:25:07.065Z,46.2
2018-01-27T05:26:08.683Z,46.1
2018-01-27T05:27:10.578Z,46.2
2018-01-27T05:28:12.514Z,46.1
2018-01-27T05:29:14.167Z,46
2018-01-27T05:30:15.785Z,46
2018-01-27T05:31:17.105Z,46.2
2018-01-27T05:32:18.723Z,46
2018-01-27T05:33:20.657Z,46
2018-01-27T05:34:22.270Z,46.1
2018-01-27T05:35:23.890Z,45.9
2018-01-27T05:36:25.233Z,46.1
2018-01-27T05:37:26.850Z,46.1
2018-01-27T05:38:27.890Z,46
2018-01-27T05:39:28.655Z,46.2
2018-01-27T05:40:30.553Z,46.2
2018-01-27T05:41:32.170Z,46
2018-01-27T05:42:33.575Z,46
2018-01-27T05:43:35.475Z,46.1
2018-01-27T05:44:37.372Z,46
2018-01-27T05:45:38.987Z,46
2018-01-27T05:46:40.029Z,46.1
2018-01-27T05:47:41.626Z,45.9
2018-01-27T05:48:43.247Z,46
2018-01-27T05:49:44.867Z,46.2
2018-01-27T05:50:46.522Z,46
2018-01-27T05:51:48.423Z,46
2018-01-27T05:52:50.038Z,46
2018-01-27T05:53:51.657Z,46.1
2018-01-27T05:54:53.557Z,45.9
2018-01-27T05:55:55.184Z,46
2018-01-27T05:56:57.074Z,46.1
2018-01-27T05:57:58.674Z,46
2018-01-27T05:59:00.020Z,45.9
2018-01-27T06:00:01.354Z,46.1
2018-01-27T06:01:02.425Z,45.9
2018-01-27T06:02:04.320Z,46.1
2018-01-27T06:03:05.639Z,46.2
2018-01-27T06:04:06.702Z,46
2018-01-27T06:05:08.328Z,45.9
2018-01-27T06:06:09.678Z,46
2018-01-27T06:07:10.743Z,46
2018-01-27T06:08:12.080Z,45.9
2018-01-27T06:09:13.706Z,46
2018-01-27T06:10:15.311Z,46
2018-01-27T06:11:16.910Z,46
2018-01-27T06:12:18.529Z,46.1
2018-01-27T06:13:19.870Z,45.9
2018-01-27T06:14:21.213Z,46
2018-01-27T06:15:23.111Z,46
2018-01-27T06:16:25.006Z,45.9
2018-01-27T06:17:26.693Z,46.1
2018-01-27T06:18:28.011Z,46
2018-01-27T06:19:29.904Z,46
2018-01-27T06:20:31.499Z,46
2018-01-27T06:21:32.819Z,45.9
2018-01-27T06:22:34.193Z,45.9
2018-01-27T06:23:35.813Z,45.9
2018-01-27T06:24:37.408Z,46
2018-01-27T06:25:39.027Z,46
2018-01-27T06:26:40.925Z,46
2018-01-27T06:27:42.524Z,45.9
2018-01-27T06:28:44.423Z,46.1
2018-01-27T06:29:46.040Z,45.9
2018-01-27T06:30:47.658Z,46
2018-01-27T06:31:49.590Z,46
2018-01-27T06:32:50.910Z,46.2
2018-01-27T06:33:52.808Z,46.1
2018-01-27T06:34:54.146Z,45.9
2018-01-27T06:35:56.054Z,45.9
2018-01-27T06:36:57.950Z,46
2018-01-27T06:37:59.571Z,46.1
2018-01-27T06:39:00.613Z,45.9
2018-01-27T06:40:02.565Z,45.9
2018-01-27T06:41:04.467Z,46.2
2018-01-27T06:42:06.081Z,46.4
2018-01-27T06:43:07.420Z,46.4
2018-01-27T06:44:08.741Z,46
2018-01-27T06:45:10.638Z,46
2018-01-27T06:46:12.535Z,46
2018-01-27T06:47:14.131Z,46.4
2018-01-27T06:48:15.474Z,45.9
2018-01-27T06:49:16.517Z,45.9
2018-01-27T06:50:26.787Z,45.9
2018-01-27T06:51:27.831Z,46
2018-01-27T06:52:29.154Z,45.9
2018-01-27T06:53:30.753Z,46
2018-01-27T06:54:32.095Z,46
2018-01-27T06:55:33.142Z,46
2018-01-27T06:56:35.041Z,46.4
2018-01-27T06:57:36.943Z,46
2018-01-27T06:58:38.295Z,45.9
2018-01-27T06:59:39.906Z,46
2018-01-27T07:00:41.802Z,46.3
2018-01-27T07:01:43.149Z,46.1
2018-01-27T07:02:44.495Z,45.8
2018-01-27T07:03:46.114Z,45.8
2018-01-27T07:04:47.718Z,46
2018-01-27T07:05:49.315Z,46.1
2018-01-27T07:06:51.212Z,45.8
2018-01-27T07:07:52.261Z,45.8
2018-01-27T07:08:53.880Z,45.9
2018-01-27T07:09:55.227Z,45.8
2018-01-27T07:10:56.844Z,45.9
2018-01-27T07:11:58.165Z,45.9
2018-01-27T07:13:00.062Z,45.9
2018-01-27T07:14:01.686Z,45.9
2018-01-27T07:15:03.288Z,45.9
2018-01-27T07:16:04.328Z,46
2018-01-27T07:17:05.402Z,45.7
2018-01-27T07:18:07.027Z,45.8
2018-01-27T07:19:08.354Z,45.9
2018-01-27T07:20:09.674Z,45.5
2018-01-27T07:21:11.573Z,45.4
2018-01-27T07:22:13.214Z,45.8
2018-01-27T07:23:14.488Z,45.7
2018-01-27T07:24:15.810Z,45.9
2018-01-27T07:25:17.705Z,45.7
2018-01-27T07:26:19.050Z,45.8
2018-01-27T07:27:20.670Z,45.6
2018-01-27T07:28:22.011Z,45.4
2018-01-27T07:29:23.339Z,45.4
2018-01-27T07:30:24.695Z,45.4
2018-01-27T07:31:26.313Z,45.3
2018-01-27T07:32:27.657Z,45.6
2018-01-27T07:33:29.556Z,45.4
2018-01-27T07:34:30.877Z,45.4
2018-01-27T07:35:32.773Z,45.4
2018-01-27T07:36:34.094Z,45.4
2018-01-27T07:37:35.691Z,45.5
2018-01-27T07:38:37.317Z,45.4
2018-01-27T07:39:38.636Z,45.5
2018-01-27T07:40:40.259Z,45.5
2018-01-27T07:41:41.861Z,45.3
2018-01-27T07:42:43.478Z,45.5
2018-01-27T07:43:45.375Z,45.4
2018-01-27T07:44:47.280Z,45.5
2018-01-27T07:45:48.901Z,45.6
2018-01-27T07:46:50.525Z,45.2
2018-01-27T07:47:52.156Z,45.5
2018-01-27T07:48:53.780Z,45.5
2018-01-27T07:49:55.684Z,45.1
2018-01-27T07:50:57.303Z,45
2018-01-27T07:51:58.928Z,45
2018-01-27T07:53:00.548Z,45
2018-01-27T07:54:01.896Z,44.9
2018-01-27T07:55:03.236Z,45.2
2018-01-27T07:56:04.856Z,45
2018-01-27T07:57:05.902Z,45.1
2018-01-27T07:58:07.797Z,45.1
2018-01-27T07:59:09.419Z,45
2018-01-27T08:00:11.039Z,45.2
2018-01-27T08:01:12.938Z,45.2
2018-01-27T08:02:14.838Z,45.1
2018-01-27T08:03:16.457Z,45.2
2018-01-27T08:04:17.503Z,45.1
2018-01-27T08:05:19.123Z,45
2018-01-27T08:06:20.789Z,45.2
2018-01-27T08:07:21.850Z,45.1
2018-01-27T08:08:23.199Z,45
2018-01-27T08:09:24.311Z,45.1
2018-01-27T08:10:25.378Z,45.1
2018-01-27T08:11:26.717Z,45.2
2018-01-27T08:12:28.338Z,45.1
2018-01-27T08:13:29.658Z,45.1
2018-01-27T08:14:30.701Z,45.1
2018-01-27T08:15:31.744Z,45.2
2018-01-27T08:16:32.787Z,45.3
2018-01-27T08:17:34.387Z,45.1
2018-01-27T08:18:35.737Z,45.1
2018-01-27T08:19:37.334Z,45.2
2018-01-27T08:20:38.954Z,45.1
2018-01-27T08:21:40.554Z,44.8
2018-01-27T08:22:42.153Z,45.2
2018-01-27T08:23:43.770Z,44.9
2018-01-27T08:24:45.671Z,45
2018-01-27T08:25:46.722Z,45
2018-01-27T08:26:48.068Z,45
2018-01-27T08:27:49.691Z,44.9
2018-01-27T08:28:51.311Z,45.2
2018-01-27T08:29:53.210Z,45.1
2018-01-27T08:30:54.532Z,44.8
2018-01-27T08:31:56.431Z,45
2018-01-27T08:32:58.049Z,44.9
2018-01-27T08:33:59.671Z,44.9
2018-01-27T08:35:01.593Z,45.1
2018-01-27T08:36:02.970Z,44.6
2018-01-27T08:37:04.292Z,44.7
2018-01-27T08:38:05.636Z,44.9
2018-01-27T08:39:07.256Z,44.9
2018-01-27T08:40:08.881Z,44.8
2018-01-27T08:41:10.779Z,45
2018-01-27T08:42:12.123Z,44.7
2018-01-27T08:43:14.019Z,45.1
2018-01-27T08:44:15.639Z,45
2018-01-27T08:45:17.259Z,44.6
2018-01-27T08:46:18.306Z,44.7
2018-01-27T08:47:19.928Z,44.5
2018-01-27T08:48:21.190Z,44.6
2018-01-27T08:49:22.808Z,44.6
2018-01-27T08:50:24.638Z,44.5
2018-01-27T08:51:26.231Z,44.4
2018-01-27T08:52:27.366Z,45
2018-01-27T08:53:29.274Z,44.5
2018-01-27T08:54:30.882Z,44.4
2018-01-27T08:55:31.991Z,44.8
2018-01-27T08:56:33.906Z,44.4
2018-01-27T08:57:35.811Z,44.4
2018-01-27T08:58:37.495Z,44.6
2018-01-27T08:59:38.915Z,44.8
2018-01-27T09:00:40.544Z,44.5
2018-01-27T09:01:41.598Z,44.8
2018-01-27T09:02:43.273Z,44.3
2018-01-27T09:03:44.622Z,44.7
2018-01-27T09:04:46.756Z,44.5
2018-01-27T09:05:48.153Z,44.7
2018-01-27T09:06:49.756Z,44.5
2018-01-27T09:07:51.657Z,44.6
2018-01-27T09:08:53.416Z,44.6
2018-01-27T09:09:55.312Z,44.4
2018-01-27T09:10:56.719Z,44.5
2018-01-27T09:11:58.067Z,44.7
2018-01-27T09:12:59.969Z,44.7
2018-01-27T09:14:01.601Z,44.7
2018-01-27T09:15:03.300Z,44.7
2018-01-27T09:16:04.923Z,44.5
2018-01-27T09:17:05.970Z,44.7
2018-01-27T09:18:07.868Z,44.6
2018-01-27T09:19:09.194Z,44.7
2018-01-27T09:20:10.546Z,44.5
2018-01-27T09:21:11.894Z,44.3
2018-01-27T09:22:13.493Z,44.4
2018-01-27T09:23:14.539Z,44.8
2018-01-27T09:24:16.271Z,44.7
2018-01-27T09:25:17.668Z,44.6
2018-01-27T09:26:19.600Z,44.5
2018-01-27T09:27:21.577Z,44.7
2018-01-27T09:28:23.177Z,44.4
2018-01-27T09:29:24.524Z,44.6
2018-01-27T09:30:26.123Z,44.6
2018-01-27T09:31:28.026Z,44.5
2018-01-27T09:32:29.368Z,44.8
2018-01-27T09:33:30.992Z,44.5
2018-01-27T09:34:32.906Z,44.7
2018-01-27T09:35:34.815Z,44.6
2018-01-27T09:36:36.429Z,44.5
2018-01-27T09:37:37.937Z,44.8
2018-01-27T09:38:39.837Z,44.6
2018-01-27T09:39:41.311Z,44.6
2018-01-27T09:40:42.932Z,44.6
2018-01-27T09:41:44.533Z,44.6
2018-01-27T09:42:46.436Z,44.5
2018-01-27T09:43:48.093Z,44.8
2018-01-27T09:44:49.712Z,44.9
2018-01-27T09:45:51.121Z,44.5
2018-01-27T09:46:53.029Z,44.5
2018-01-27T09:47:54.930Z,44.5
2018-01-27T09:48:56.078Z,44.8
2018-01-27T09:49:57.701Z,44.8
2018-01-27T09:50:59.660Z,44.7
2018-01-27T09:52:01.422Z,44.8
2018-01-27T09:53:03.324Z,44.7
2018-01-27T09:54:04.944Z,44.7
2018-01-27T09:55:06.857Z,44.6
2018-01-27T09:56:07.725Z,44.5
2018-01-27T09:57:09.383Z,44.8
2018-01-27T09:58:11.014Z,44.8
2018-01-27T09:59:13.153Z,44.5
2018-01-27T10:00:15.057Z,44.8
2018-01-27T10:01:16.955Z,44.6
2018-01-27T10:02:18.301Z,44.6
2018-01-27T10:03:19.361Z,44.6
2018-01-27T10:04:21.032Z,44.8
2018-01-27T10:05:22.418Z,44.8
2018-01-27T10:06:24.318Z,44.7
2018-01-27T10:07:26.258Z,44.6
2018-01-27T10:08:28.155Z,44.7
2018-01-27T10:09:30.054Z,44.5
2018-01-27T10:10:31.991Z,44.4
2018-01-27T10:11:33.947Z,44.7
2018-01-27T10:12:35.576Z,44.8
2018-01-27T10:13:36.663Z,44.8
2018-01-27T10:14:38.008Z,44.8
2018-01-27T10:15:39.907Z,44.8
2018-01-27T10:16:41.256Z,44.6
2018-01-27T10:17:42.896Z,44.5
2018-01-27T10:18:44.503Z,44.8
2018-01-27T10:19:45.833Z,44.7
2018-01-27T10:20:47.029Z,44.5
2018-01-27T10:21:48.958Z,44.7
2018-01-27T10:22:50.334Z,44.5
2018-01-27T10:23:51.995Z,44.8
2018-01-27T10:24:53.626Z,44.5
2018-01-27T10:25:54.968Z,44.7
2018-01-27T10:26:56.676Z,44.7
2018-01-27T10:27:58.582Z,44.5
2018-01-27T10:29:00.488Z,44.4
2018-01-27T10:30:02.138Z,44.7
2018-01-27T10:31:04.033Z,44.6
2018-01-27T10:32:05.654Z,44.6
2018-01-27T10:33:07.063Z,44.7
2018-01-27T10:34:08.674Z,44.6
2018-01-27T10:35:10.004Z,44.5
2018-01-27T10:36:11.732Z,44.7
2018-01-27T10:37:13.614Z,44.3
2018-01-27T10:38:14.381Z,44.1
2018-01-27T10:39:15.707Z,44.2
2018-01-27T10:40:17.034Z,44.3
2018-01-27T10:41:18.416Z,44.2
2018-01-27T10:42:20.037Z,44.6
2018-01-27T10:43:21.707Z,44.5
2018-01-27T10:44:23.033Z,44.5
2018-01-27T10:45:24.654Z,44.4
2018-01-27T10:46:26.371Z,44.3
2018-01-27T10:47:27.697Z,44.2
2018-01-27T10:48:29.322Z,44.3
2018-01-27T10:49:30.941Z,44.2
2018-01-27T10:50:32.689Z,44.6
2018-01-27T10:51:34.298Z,44.7
2018-01-27T10:52:35.920Z,44.6
2018-01-27T10:53:37.853Z,44.7
2018-01-27T10:54:39.205Z,44.9
2018-01-27T10:55:40.825Z,44.6
2018-01-27T10:56:42.653Z,44.9
2018-01-27T10:57:44.278Z,44.8
2018-01-27T10:58:45.901Z,44.9
2018-01-27T10:59:47.825Z,44.7
2018-01-27T11:00:49.147Z,44.6
2018-01-27T11:01:50.214Z,44.9
2018-01-27T11:02:51.566Z,44.8
2018-01-27T11:03:52.957Z,44.8
2018-01-27T11:04:54.863Z,44.7
2018-01-27T11:05:56.485Z,44.5
2018-01-27T11:06:57.928Z,44.8
2018-01-27T11:07:59.923Z,44.9
2018-01-27T11:09:01.823Z,44.8
2018-01-27T11:10:03.537Z,44.9
2018-01-27T11:11:04.870Z,45
2018-01-27T11:12:06.580Z,44.9
2018-01-27T11:13:08.228Z,44.9
2018-01-27T11:14:10.128Z,44.9
2018-01-27T11:15:12.029Z,44.9
2018-01-27T11:16:13.932Z,44.9
2018-01-27T11:17:15.832Z,45
2018-01-27T11:18:17.262Z,45.1
2018-01-27T11:19:18.883Z,44.9
2018-01-27T11:20:20.509Z,44.9
2018-01-27T11:21:21.650Z,44.8
2018-01-27T11:22:23.050Z,45.2
2018-01-27T11:23:24.949Z,45.2
2018-01-27T11:24:25.719Z,45.1
2018-01-27T11:25:26.556Z,45.1
2018-01-27T11:26:28.198Z,45
2018-01-27T11:27:29.798Z,45.1
2018-01-27T11:28:31.145Z,45.2
2018-01-27T11:29:32.769Z,45.1
2018-01-27T11:30:34.122Z,45.2
2018-01-27T11:31:35.723Z,45.3
2018-01-27T11:32:37.624Z,45.1
2018-01-27T11:33:39.250Z,45.2
2018-01-27T11:34:41.192Z,45.2
2018-01-27T11:35:42.888Z,45
2018-01-27T11:36:44.511Z,45.1
2018-01-27T11:37:45.565Z,45.1
2018-01-27T11:38:47.266Z,45.1
2018-01-27T11:39:48.035Z,45.2
2018-01-27T11:40:49.660Z,45.1
2018-01-27T11:41:51.567Z,45
2018-01-27T11:42:52.632Z,44.9
2018-01-27T11:43:54.276Z,45.1
2018-01-27T11:44:55.885Z,45.1
2018-01-27T11:45:57.813Z,45.5
2018-01-27T11:46:59.161Z,44.9
2018-01-27T11:48:00.766Z,45.5
2018-01-27T11:49:02.475Z,44.9
2018-01-27T11:50:04.390Z,45.2
2018-01-27T11:51:06.282Z,45.2
2018-01-27T11:52:08.204Z,45.5
2018-01-27T11:53:09.851Z,45.4
2018-01-27T11:54:11.627Z,45.4
2018-01-27T11:55:13.163Z,45.3
2018-01-27T11:56:14.486Z,45.4
2018-01-27T11:57:15.263Z,45.6
2018-01-27T11:58:16.648Z,45.6
2018-01-27T11:59:17.995Z,45
2018-01-27T12:00:19.314Z,45.3
2018-01-27T12:01:20.652Z,45.4
2018-01-27T12:02:21.996Z,45.3
2018-01-27T12:03:23.894Z,45.4
2018-01-27T12:04:25.547Z,45.5
2018-01-27T12:05:26.623Z,45.5
2018-01-27T12:06:27.965Z,45.4
2018-01-27T12:07:29.875Z,45.6
2018-01-27T12:08:31.465Z,45.5
2018-01-27T12:09:33.093Z,45.3
2018-01-27T12:10:34.713Z,45.5
2018-01-27T12:11:36.347Z,45.5
2018-01-27T12:12:38.244Z,45.5
2018-01-27T12:13:39.851Z,45.4
2018-01-27T12:14:41.480Z,45.5
2018-01-27T12:15:42.831Z,45.3
2018-01-27T12:16:44.445Z,45.4
2018-01-27T12:17:46.072Z,45.3
2018-01-27T12:18:47.673Z,45.3
2018-01-27T12:19:49.016Z,45.3
2018-01-27T12:20:50.617Z,45.4
2018-01-27T12:21:52.239Z,45.6
2018-01-27T12:22:53.863Z,45.5
2018-01-27T12:23:55.768Z,45.3
2018-01-27T12:24:57.369Z,45.3
2018-01-27T12:25:59.278Z,45.6
2018-01-27T12:27:00.599Z,45.7
2018-01-27T12:28:02.223Z,45.3
2018-01-27T12:29:03.844Z,45.3
2018-01-27T12:30:05.191Z,45.9
2018-01-27T12:31:06.832Z,45.8
2018-01-27T12:32:08.484Z,46.1
2018-01-27T12:33:09.530Z,45.9
2018-01-27T12:34:10.874Z,45.9
2018-01-27T12:35:12.197Z,45.8
2018-01-27T12:36:14.111Z,45.6
2018-01-27T12:37:15.510Z,45.9
2018-01-27T12:38:17.179Z,45.6
2018-01-27T12:39:18.505Z,45.9
2018-01-27T12:40:19.272Z,45.9
2018-01-27T12:41:20.896Z,45.8
2018-01-27T12:42:22.795Z,45.9
2018-01-27T12:43:24.419Z,45.8
2018-01-27T12:44:25.765Z,45.8
2018-01-27T12:45:27.719Z,45.7
2018-01-27T12:46:29.619Z,45.9
2018-01-27T12:47:30.673Z,46.1
2018-01-27T12:48:32.571Z,46.1
2018-01-27T12:49:34.476Z,45.8
2018-01-27T12:50:36.094Z,46.1
2018-01-27T12:51:37.414Z,45.7
2018-01-27T12:52:39.314Z,46.1
2018-01-27T12:53:40.636Z,46.2
2018-01-27T12:54:42.258Z,45.8
2018-01-27T12:55:44.160Z,45.7
2018-01-27T12:56:45.504Z,46.2
2018-01-27T12:57:46.848Z,46
2018-01-27T12:58:48.172Z,46
2018-01-27T12:59:50.071Z,46
2018-01-27T13:00:51.694Z,45.9
2018-01-27T13:01:53.314Z,45.8
2018-01-27T13:02:54.670Z,46
2018-01-27T13:03:55.983Z,46
2018-01-27T13:04:57.607Z,45.9
2018-01-27T13:05:59.232Z,46
2018-01-27T13:07:00.856Z,45.9
2018-01-27T13:08:02.182Z,46
2018-01-27T13:09:03.506Z,45.9
2018-01-27T13:10:05.407Z,46
2018-01-27T13:11:07.048Z,46
2018-01-27T13:12:08.646Z,46
2018-01-27T13:13:10.246Z,45.9
2018-01-27T13:14:11.868Z,46
2018-01-27T13:15:12.912Z,46
2018-01-27T13:16:14.510Z,45.9
2018-01-27T13:17:16.408Z,45.9
2018-01-27T13:18:18.033Z,46.3
2018-01-27T13:19:19.629Z,46.3
2018-01-27T13:20:21.257Z,46.3
2018-01-27T13:21:22.881Z,46.3
2018-01-27T13:22:24.223Z,46
2018-01-27T13:23:26.121Z,46.3
2018-01-27T13:24:27.466Z,46
2018-01-27T13:25:28.788Z,46
2018-01-27T13:26:30.694Z,46
2018-01-27T13:27:32.314Z,46
2018-01-27T13:28:33.934Z,45.9
2018-01-27T13:29:35.556Z,46
2018-01-27T13:30:37.175Z,46
2018-01-27T13:31:38.800Z,45.9
2018-01-27T13:32:40.123Z,46.1
2018-01-27T13:33:41.796Z,46
2018-01-27T13:34:42.839Z,45.9
2018-01-27T13:35:44.466Z,45.8
2018-01-27T13:36:46.362Z,46.1
2018-01-27T13:37:47.984Z,46.1
2018-01-27T13:38:49.303Z,45.9
2018-01-27T13:39:51.201Z,45.8
2018-01-27T13:40:52.285Z,46
2018-01-27T13:41:54.220Z,46
2018-01-27T13:42:55.838Z,45.9
2018-01-27T13:43:57.754Z,45.9
2018-01-27T13:44:59.651Z,46
2018-01-27T13:46:01.274Z,46
2018-01-27T13:47:02.622Z,45.9